sensor_id;sensor_type;location;lat;lon;timestamp;P1;durP1;ratioP1;P2;durP2;ratioP2
53391;SDS011;41667;51.922;8.850;2024-01-16T00:02:22;4.50;;;1.48;;
53391;SDS011;41667;51.922;8.850;2024-01-16T00:04:47;2.35;;;2.15;;
53391;SDS011;41667;51.922;8.850;2024-01-16T00:07:12;2.25;;;1.63;;
53391;SDS011;41667;51.922;8.850;2024-01-16T00:09:38;4.50;;;1.48;;
53391;SDS011;41667;51.922;8.850;2024-01-16T00:12:03;2.75;;;1.60;;
53391;SDS011;41667;51.922;8.850;2024-01-16T00:14:29;8.68;;;2.80;;
53391;SDS011;41667;51.922;8.850;2024-01-16T00:16:54;2.00;;;1.90;;
53391;SDS011;41667;51.922;8.850;2024-01-16T00:19:19;3.63;;;2.42;;
53391;SDS011;41667;51.922;8.850;2024-01-16T00:21:45;2.53;;;2.10;;
53391;SDS011;41667;51.922;8.850;2024-01-16T00:24:11;5.07;;;1.80;;
53391;SDS011;41667;51.922;8.850;2024-01-16T00:26:37;2.28;;;2.10;;
53391;SDS011;41667;51.922;8.850;2024-01-16T00:29:02;2.78;;;1.88;;
53391;SDS011;41667;51.922;8.850;2024-01-16T00:31:27;3.65;;;2.58;;
53391;SDS011;41667;51.922;8.850;2024-01-16T00:33:52;6.50;;;3.33;;
53391;SDS011;41667;51.922;8.850;2024-01-16T00:36:18;2.70;;;1.70;;
53391;SDS011;41667;51.922;8.850;2024-01-16T00:38:43;5.13;;;2.42;;
53391;SDS011;41667;51.922;8.850;2024-01-16T00:41:09;4.30;;;3.10;;
53391;SDS011;41667;51.922;8.850;2024-01-16T00:43:35;5.45;;;2.60;;
53391;SDS011;41667;51.922;8.850;2024-01-16T00:46:01;7.55;;;2.40;;
53391;SDS011;41667;51.922;8.850;2024-01-16T00:48:26;6.18;;;2.13;;
53391;SDS011;41667;51.922;8.850;2024-01-16T00:50:51;2.30;;;2.10;;
53391;SDS011;41667;51.922;8.850;2024-01-16T00:53:16;2.60;;;2.38;;
53391;SDS011;41667;51.922;8.850;2024-01-16T00:55:42;3.85;;;2.65;;
53391;SDS011;41667;51.922;8.850;2024-01-16T00:58:07;3.38;;;2.05;;
53391;SDS011;41667;51.922;8.850;2024-01-16T01:00:32;4.75;;;2.20;;
53391;SDS011;41667;51.922;8.850;2024-01-16T01:02:59;3.63;;;3.03;;
53391;SDS011;41667;51.922;8.850;2024-01-16T01:05:25;2.53;;;2.33;;
53391;SDS011;41667;51.922;8.850;2024-01-16T01:07:53;5.10;;;2.40;;
53391;SDS011;41667;51.922;8.850;2024-01-16T01:10:19;3.25;;;2.38;;
53391;SDS011;41667;51.922;8.850;2024-01-16T01:12:45;5.03;;;2.40;;
53391;SDS011;41667;51.922;8.850;2024-01-16T01:15:10;2.53;;;2.33;;
53391;SDS011;41667;51.922;8.850;2024-01-16T01:17:35;12.45;;;3.45;;
53391;SDS011;41667;51.922;8.850;2024-01-16T01:20:01;6.10;;;2.60;;
53391;SDS011;41667;51.922;8.850;2024-01-16T01:22:26;5.43;;;2.10;;
53391;SDS011;41667;51.922;8.850;2024-01-16T01:24:51;3.42;;;2.40;;
53391;SDS011;41667;51.922;8.850;2024-01-16T01:27:17;6.35;;;3.15;;
53391;SDS011;41667;51.922;8.850;2024-01-16T01:29:42;2.35;;;1.85;;
53391;SDS011;41667;51.922;8.850;2024-01-16T01:32:07;6.28;;;3.00;;
53391;SDS011;41667;51.922;8.850;2024-01-16T01:34:33;2.95;;;2.35;;
53391;SDS011;41667;51.922;8.850;2024-01-16T01:36:59;3.22;;;2.35;;
53391;SDS011;41667;51.922;8.850;2024-01-16T01:39:24;6.70;;;2.83;;
53391;SDS011;41667;51.922;8.850;2024-01-16T01:41:50;4.22;;;2.00;;
53391;SDS011;41667;51.922;8.850;2024-01-16T01:44:15;5.85;;;2.15;;
53391;SDS011;41667;51.922;8.850;2024-01-16T01:46:41;8.55;;;2.53;;
53391;SDS011;41667;51.922;8.850;2024-01-16T01:49:07;2.45;;;2.22;;
53391;SDS011;41667;51.922;8.850;2024-01-16T01:51:32;5.15;;;3.03;;
53391;SDS011;41667;51.922;8.850;2024-01-16T01:53:58;3.35;;;1.95;;
53391;SDS011;41667;51.922;8.850;2024-01-16T01:56:24;2.55;;;1.77;;
53391;SDS011;41667;51.922;8.850;2024-01-16T01:58:53;4.30;;;4.00;;
53391;SDS011;41667;51.922;8.850;2024-01-16T02:01:20;18.23;;;3.80;;
53391;SDS011;41667;51.922;8.850;2024-01-16T02:03:46;4.85;;;2.85;;
53391;SDS011;41667;51.922;8.850;2024-01-16T02:06:12;6.32;;;2.20;;
53391;SDS011;41667;51.922;8.850;2024-01-16T02:08:40;9.07;;;3.28;;
53391;SDS011;41667;51.922;8.850;2024-01-16T02:11:06;4.07;;;2.63;;
53391;SDS011;41667;51.922;8.850;2024-01-16T02:13:31;6.13;;;3.08;;
53391;SDS011;41667;51.922;8.850;2024-01-16T02:15:57;7.53;;;4.57;;
53391;SDS011;41667;51.922;8.850;2024-01-16T02:18:22;8.30;;;3.60;;
53391;SDS011;41667;51.922;8.850;2024-01-16T02:20:47;4.90;;;3.53;;
53391;SDS011;41667;51.922;8.850;2024-01-16T02:23:13;7.78;;;3.78;;
53391;SDS011;41667;51.922;8.850;2024-01-16T02:25:40;7.65;;;3.22;;
53391;SDS011;41667;51.922;8.850;2024-01-16T02:28:06;5.95;;;3.58;;
53391;SDS011;41667;51.922;8.850;2024-01-16T02:30:31;5.30;;;3.28;;
53391;SDS011;41667;51.922;8.850;2024-01-16T02:32:57;3.97;;;2.50;;
53391;SDS011;41667;51.922;8.850;2024-01-16T02:35:22;7.63;;;3.45;;
53391;SDS011;41667;51.922;8.850;2024-01-16T02:37:48;3.92;;;2.85;;
53391;SDS011;41667;51.922;8.850;2024-01-16T02:40:13;3.45;;;2.95;;
53391;SDS011;41667;51.922;8.850;2024-01-16T02:42:38;7.55;;;2.80;;
53391;SDS011;41667;51.922;8.850;2024-01-16T02:45:07;9.57;;;3.95;;
53391;SDS011;41667;51.922;8.850;2024-01-16T02:47:32;3.53;;;2.65;;
53391;SDS011;41667;51.922;8.850;2024-01-16T02:49:58;8.40;;;3.70;;
53391;SDS011;41667;51.922;8.850;2024-01-16T02:52:24;7.30;;;3.22;;
53391;SDS011;41667;51.922;8.850;2024-01-16T02:54:49;7.53;;;3.45;;
53391;SDS011;41667;51.922;8.850;2024-01-16T02:57:15;7.43;;;3.17;;
53391;SDS011;41667;51.922;8.850;2024-01-16T02:59:43;7.97;;;3.25;;
53391;SDS011;41667;51.922;8.850;2024-01-16T03:02:08;6.18;;;4.78;;
53391;SDS011;41667;51.922;8.850;2024-01-16T03:04:34;8.57;;;3.70;;
53391;SDS011;41667;51.922;8.850;2024-01-16T03:07:00;5.72;;;3.20;;
53391;SDS011;41667;51.922;8.850;2024-01-16T03:09:25;5.75;;;3.75;;
53391;SDS011;41667;51.922;8.850;2024-01-16T03:11:50;7.07;;;3.15;;
53391;SDS011;41667;51.922;8.850;2024-01-16T03:14:15;5.28;;;2.90;;
53391;SDS011;41667;51.922;8.850;2024-01-16T03:16:41;4.15;;;2.88;;
53391;SDS011;41667;51.922;8.850;2024-01-16T03:19:06;6.32;;;4.00;;
53391;SDS011;41667;51.922;8.850;2024-01-16T03:21:32;2.95;;;2.65;;
53391;SDS011;41667;51.922;8.850;2024-01-16T03:23:57;9.50;;;3.65;;
53391;SDS011;41667;51.922;8.850;2024-01-16T03:26:22;4.35;;;3.17;;
53391;SDS011;41667;51.922;8.850;2024-01-16T03:28:47;8.82;;;3.30;;
53391;SDS011;41667;51.922;8.850;2024-01-16T03:31:13;4.70;;;2.95;;
53391;SDS011;41667;51.922;8.850;2024-01-16T03:33:41;3.90;;;2.75;;
53391;SDS011;41667;51.922;8.850;2024-01-16T03:36:07;5.88;;;3.25;;
53391;SDS011;41667;51.922;8.850;2024-01-16T03:38:35;6.75;;;4.47;;
53391;SDS011;41667;51.922;8.850;2024-01-16T03:41:02;11.35;;;2.97;;
53391;SDS011;41667;51.922;8.850;2024-01-16T03:43:28;6.72;;;3.35;;
53391;SDS011;41667;51.922;8.850;2024-01-16T03:45:56;5.72;;;3.30;;
53391;SDS011;41667;51.922;8.850;2024-01-16T03:48:22;8.63;;;3.92;;
53391;SDS011;41667;51.922;8.850;2024-01-16T03:50:47;3.20;;;2.90;;
53391;SDS011;41667;51.922;8.850;2024-01-16T03:53:12;9.48;;;3.92;;
53391;SDS011;41667;51.922;8.850;2024-01-16T03:55:37;8.57;;;3.97;;
53391;SDS011;41667;51.922;8.850;2024-01-16T03:58:03;8.55;;;3.58;;
53391;SDS011;41667;51.922;8.850;2024-01-16T04:00:28;4.95;;;2.88;;
53391;SDS011;41667;51.922;8.850;2024-01-16T04:02:53;10.23;;;3.97;;
53391;SDS011;41667;51.922;8.850;2024-01-16T04:05:19;10.02;;;3.72;;
53391;SDS011;41667;51.922;8.850;2024-01-16T04:07:44;6.95;;;3.72;;
53391;SDS011;41667;51.922;8.850;2024-01-16T04:10:09;6.22;;;4.20;;
53391;SDS011;41667;51.922;8.850;2024-01-16T04:12:35;4.53;;;3.22;;
53391;SDS011;41667;51.922;8.850;2024-01-16T04:15:00;7.00;;;3.22;;
53391;SDS011;41667;51.922;8.850;2024-01-16T04:17:25;6.68;;;4.22;;
53391;SDS011;41667;51.922;8.850;2024-01-16T04:19:51;11.68;;;3.80;;
53391;SDS011;41667;51.922;8.850;2024-01-16T04:22:16;8.18;;;4.13;;
53391;SDS011;41667;51.922;8.850;2024-01-16T04:24:41;8.48;;;4.47;;
53391;SDS011;41667;51.922;8.850;2024-01-16T04:27:07;9.15;;;3.83;;
53391;SDS011;41667;51.922;8.850;2024-01-16T04:29:32;7.20;;;3.55;;
53391;SDS011;41667;51.922;8.850;2024-01-16T04:31:57;17.63;;;5.72;;
53391;SDS011;41667;51.922;8.850;2024-01-16T04:34:23;13.98;;;3.67;;
53391;SDS011;41667;51.922;8.850;2024-01-16T04:36:48;6.63;;;3.95;;
53391;SDS011;41667;51.922;8.850;2024-01-16T04:39:13;5.70;;;3.45;;
53391;SDS011;41667;51.922;8.850;2024-01-16T04:41:39;5.60;;;4.15;;
53391;SDS011;41667;51.922;8.850;2024-01-16T04:44:04;5.63;;;3.45;;
53391;SDS011;41667;51.922;8.850;2024-01-16T04:46:29;5.35;;;3.80;;
53391;SDS011;41667;51.922;8.850;2024-01-16T04:48:55;11.88;;;4.82;;
53391;SDS011;41667;51.922;8.850;2024-01-16T04:51:20;7.68;;;4.95;;
53391;SDS011;41667;51.922;8.850;2024-01-16T04:53:45;5.70;;;4.50;;
53391;SDS011;41667;51.922;8.850;2024-01-16T04:56:10;12.45;;;4.53;;
53391;SDS011;41667;51.922;8.850;2024-01-16T04:58:36;8.25;;;4.18;;
53391;SDS011;41667;51.922;8.850;2024-01-16T05:01:01;11.45;;;6.07;;
53391;SDS011;41667;51.922;8.850;2024-01-16T05:03:26;7.15;;;5.55;;
53391;SDS011;41667;51.922;8.850;2024-01-16T05:05:52;9.65;;;5.30;;
53391;SDS011;41667;51.922;8.850;2024-01-16T05:08:17;10.32;;;4.55;;
53391;SDS011;41667;51.922;8.850;2024-01-16T05:10:43;10.27;;;4.50;;
53391;SDS011;41667;51.922;8.850;2024-01-16T05:13:08;6.40;;;4.13;;
53391;SDS011;41667;51.922;8.850;2024-01-16T05:15:34;6.05;;;3.15;;
53391;SDS011;41667;51.922;8.850;2024-01-16T05:17:59;11.55;;;4.57;;
53391;SDS011;41667;51.922;8.850;2024-01-16T05:20:24;5.35;;;4.13;;
53391;SDS011;41667;51.922;8.850;2024-01-16T05:22:49;10.25;;;4.53;;
53391;SDS011;41667;51.922;8.850;2024-01-16T05:25:15;6.85;;;4.57;;
53391;SDS011;41667;51.922;8.850;2024-01-16T05:27:42;8.40;;;5.18;;
53391;SDS011;41667;51.922;8.850;2024-01-16T05:30:08;5.45;;;3.95;;
53391;SDS011;41667;51.922;8.850;2024-01-16T05:32:34;8.57;;;4.03;;
53391;SDS011;41667;51.922;8.850;2024-01-16T05:35:00;13.35;;;4.60;;
53391;SDS011;41667;51.922;8.850;2024-01-16T05:37:25;5.18;;;4.18;;
53391;SDS011;41667;51.922;8.850;2024-01-16T05:39:50;11.60;;;4.85;;
53391;SDS011;41667;51.922;8.850;2024-01-16T05:42:16;5.47;;;4.13;;
53391;SDS011;41667;51.922;8.850;2024-01-16T05:44:41;7.47;;;4.38;;
53391;SDS011;41667;51.922;8.850;2024-01-16T05:47:06;9.45;;;3.97;;
53391;SDS011;41667;51.922;8.850;2024-01-16T05:49:32;16.25;;;5.43;;
53391;SDS011;41667;51.922;8.850;2024-01-16T05:51:57;9.40;;;4.25;;
53391;SDS011;41667;51.922;8.850;2024-01-16T05:54:22;5.43;;;3.63;;
53391;SDS011;41667;51.922;8.850;2024-01-16T05:56:48;7.47;;;4.38;;
53391;SDS011;41667;51.922;8.850;2024-01-16T05:59:13;9.05;;;3.30;;
53391;SDS011;41667;51.922;8.850;2024-01-16T06:01:38;12.38;;;3.65;;
53391;SDS011;41667;51.922;8.850;2024-01-16T06:04:04;5.78;;;3.42;;
53391;SDS011;41667;51.922;8.850;2024-01-16T06:06:29;3.75;;;2.97;;
53391;SDS011;41667;51.922;8.850;2024-01-16T06:08:55;6.88;;;3.75;;
53391;SDS011;41667;51.922;8.850;2024-01-16T06:11:30;6.05;;;3.17;;
53391;SDS011;41667;51.922;8.850;2024-01-16T06:13:56;10.32;;;3.78;;
53391;SDS011;41667;51.922;8.850;2024-01-16T06:16:21;7.85;;;4.35;;
53391;SDS011;41667;51.922;8.850;2024-01-16T06:18:47;10.07;;;3.65;;
53391;SDS011;41667;51.922;8.850;2024-01-16T06:21:12;5.13;;;4.10;;
53391;SDS011;41667;51.922;8.850;2024-01-16T06:23:37;7.03;;;3.78;;
53391;SDS011;41667;51.922;8.850;2024-01-16T06:26:03;9.32;;;4.20;;
53391;SDS011;41667;51.922;8.850;2024-01-16T06:28:28;18.17;;;4.93;;
53391;SDS011;41667;51.922;8.850;2024-01-16T06:30:53;8.88;;;4.00;;
53391;SDS011;41667;51.922;8.850;2024-01-16T06:33:19;8.77;;;4.45;;
53391;SDS011;41667;51.922;8.850;2024-01-16T06:35:44;8.63;;;4.53;;
53391;SDS011;41667;51.922;8.850;2024-01-16T06:38:09;10.80;;;4.22;;
53391;SDS011;41667;51.922;8.850;2024-01-16T06:40:34;10.93;;;3.75;;
53391;SDS011;41667;51.922;8.850;2024-01-16T06:43:00;5.28;;;4.05;;
53391;SDS011;41667;51.922;8.850;2024-01-16T06:45:25;9.35;;;3.78;;
53391;SDS011;41667;51.922;8.850;2024-01-16T06:47:51;9.15;;;5.35;;
53391;SDS011;41667;51.922;8.850;2024-01-16T06:50:16;12.43;;;5.45;;
53391;SDS011;41667;51.922;8.850;2024-01-16T06:52:42;15.40;;;5.05;;
53391;SDS011;41667;51.922;8.850;2024-01-16T06:55:07;10.38;;;5.00;;
53391;SDS011;41667;51.922;8.850;2024-01-16T06:57:32;7.45;;;4.10;;
53391;SDS011;41667;51.922;8.850;2024-01-16T06:59:58;11.18;;;5.80;;
53391;SDS011;41667;51.922;8.850;2024-01-16T07:02:23;13.02;;;4.63;;
53391;SDS011;41667;51.922;8.850;2024-01-16T07:04:49;12.32;;;4.97;;
53391;SDS011;41667;51.922;8.850;2024-01-16T07:07:14;6.55;;;3.65;;
53391;SDS011;41667;51.922;8.850;2024-01-16T07:09:39;11.35;;;5.20;;
53391;SDS011;41667;51.922;8.850;2024-01-16T07:12:05;8.90;;;4.55;;
53391;SDS011;41667;51.922;8.850;2024-01-16T07:14:30;13.32;;;5.68;;
53391;SDS011;41667;51.922;8.850;2024-01-16T07:16:57;6.93;;;3.47;;
53391;SDS011;41667;51.922;8.850;2024-01-16T07:19:22;9.38;;;4.15;;
53391;SDS011;41667;51.922;8.850;2024-01-16T07:21:47;6.32;;;4.35;;
53391;SDS011;41667;51.922;8.850;2024-01-16T07:24:13;6.82;;;4.30;;
53391;SDS011;41667;51.922;8.850;2024-01-16T07:26:38;11.05;;;5.65;;
53391;SDS011;41667;51.922;8.850;2024-01-16T07:29:04;10.45;;;5.88;;
53391;SDS011;41667;51.922;8.850;2024-01-16T07:31:29;17.42;;;6.35;;
53391;SDS011;41667;51.922;8.850;2024-01-16T07:33:54;7.65;;;4.95;;
53391;SDS011;41667;51.922;8.850;2024-01-16T07:36:20;8.52;;;5.60;;
53391;SDS011;41667;51.922;8.850;2024-01-16T07:38:45;9.18;;;5.25;;
53391;SDS011;41667;51.922;8.850;2024-01-16T07:41:10;14.65;;;7.18;;
53391;SDS011;41667;51.922;8.850;2024-01-16T07:43:35;8.80;;;5.15;;
53391;SDS011;41667;51.922;8.850;2024-01-16T07:46:01;9.13;;;5.55;;
53391;SDS011;41667;51.922;8.850;2024-01-16T07:48:26;11.20;;;6.10;;
53391;SDS011;41667;51.922;8.850;2024-01-16T07:50:52;13.05;;;7.15;;
53391;SDS011;41667;51.922;8.850;2024-01-16T07:53:17;11.93;;;6.65;;
53391;SDS011;41667;51.922;8.850;2024-01-16T07:55:43;11.23;;;6.57;;
53391;SDS011;41667;51.922;8.850;2024-01-16T07:58:10;12.77;;;7.90;;
53391;SDS011;41667;51.922;8.850;2024-01-16T08:00:36;12.40;;;7.85;;
53391;SDS011;41667;51.922;8.850;2024-01-16T08:03:01;12.82;;;7.13;;
53391;SDS011;41667;51.922;8.850;2024-01-16T08:05:27;15.93;;;8.90;;
53391;SDS011;41667;51.922;8.850;2024-01-16T08:07:53;19.88;;;7.53;;
53391;SDS011;41667;51.922;8.850;2024-01-16T08:10:18;10.93;;;6.78;;
53391;SDS011;41667;51.922;8.850;2024-01-16T08:12:44;15.82;;;6.93;;
53391;SDS011;41667;51.922;8.850;2024-01-16T08:15:09;13.68;;;7.30;;
53391;SDS011;41667;51.922;8.850;2024-01-16T08:17:35;4.00;;;3.65;;
53391;SDS011;41667;51.922;8.850;2024-01-16T08:20:00;8.40;;;5.97;;
53391;SDS011;41667;51.922;8.850;2024-01-16T08:22:25;7.32;;;5.68;;
53391;SDS011;41667;51.922;8.850;2024-01-16T08:24:51;15.50;;;8.57;;
53391;SDS011;41667;51.922;8.850;2024-01-16T08:27:16;13.45;;;8.10;;
53391;SDS011;41667;51.922;8.850;2024-01-16T08:29:42;22.92;;;7.30;;
53391;SDS011;41667;51.922;8.850;2024-01-16T08:32:07;8.93;;;6.40;;
53391;SDS011;41667;51.922;8.850;2024-01-16T08:34:32;14.32;;;7.63;;
53391;SDS011;41667;51.922;8.850;2024-01-16T08:36:58;15.88;;;7.50;;
53391;SDS011;41667;51.922;8.850;2024-01-16T08:39:23;9.70;;;7.22;;
53391;SDS011;41667;51.922;8.850;2024-01-16T08:41:49;9.85;;;5.97;;
53391;SDS011;41667;51.922;8.850;2024-01-16T08:44:15;12.40;;;7.43;;
53391;SDS011;41667;51.922;8.850;2024-01-16T08:46:40;6.78;;;4.78;;
53391;SDS011;41667;51.922;8.850;2024-01-16T08:49:05;9.85;;;4.85;;
53391;SDS011;41667;51.922;8.850;2024-01-16T08:51:30;10.52;;;6.53;;
53391;SDS011;41667;51.922;8.850;2024-01-16T08:53:56;12.43;;;5.97;;
53391;SDS011;41667;51.922;8.850;2024-01-16T08:56:21;12.95;;;6.60;;
53391;SDS011;41667;51.922;8.850;2024-01-16T08:58:47;11.82;;;5.70;;
53391;SDS011;41667;51.922;8.850;2024-01-16T09:01:12;11.07;;;5.70;;
53391;SDS011;41667;51.922;8.850;2024-01-16T09:03:37;8.13;;;4.63;;
53391;SDS011;41667;51.922;8.850;2024-01-16T09:06:02;7.32;;;5.32;;
53391;SDS011;41667;51.922;8.850;2024-01-16T09:08:28;6.45;;;4.15;;
53391;SDS011;41667;51.922;8.850;2024-01-16T09:10:54;6.50;;;5.10;;
53391;SDS011;41667;51.922;8.850;2024-01-16T09:13:19;6.35;;;4.13;;
53391;SDS011;41667;51.922;8.850;2024-01-16T09:15:45;8.25;;;5.05;;
53391;SDS011;41667;51.922;8.850;2024-01-16T09:18:14;7.63;;;5.00;;
53391;SDS011;41667;51.922;8.850;2024-01-16T09:20:39;8.40;;;4.63;;
53391;SDS011;41667;51.922;8.850;2024-01-16T09:23:05;6.20;;;4.95;;
53391;SDS011;41667;51.922;8.850;2024-01-16T09:25:30;7.40;;;4.80;;
53391;SDS011;41667;51.922;8.850;2024-01-16T09:27:55;5.95;;;5.10;;
53391;SDS011;41667;51.922;8.850;2024-01-16T09:30:20;7.68;;;5.05;;
53391;SDS011;41667;51.922;8.850;2024-01-16T09:32:47;7.55;;;4.70;;
53391;SDS011;41667;51.922;8.850;2024-01-16T09:35:15;7.18;;;4.68;;
53391;SDS011;41667;51.922;8.850;2024-01-16T09:37:41;6.18;;;4.95;;
53391;SDS011;41667;51.922;8.850;2024-01-16T09:40:06;9.13;;;5.78;;
53391;SDS011;41667;51.922;8.850;2024-01-16T09:42:32;12.77;;;4.85;;
53391;SDS011;41667;51.922;8.850;2024-01-16T09:44:57;9.43;;;4.65;;
53391;SDS011;41667;51.922;8.850;2024-01-16T09:47:25;9.85;;;6.03;;
53391;SDS011;41667;51.922;8.850;2024-01-16T09:49:51;6.55;;;4.75;;
53391;SDS011;41667;51.922;8.850;2024-01-16T09:52:17;13.35;;;6.88;;
53391;SDS011;41667;51.922;8.850;2024-01-16T09:54:43;6.63;;;4.55;;
53391;SDS011;41667;51.922;8.850;2024-01-16T09:57:08;8.20;;;5.43;;
53391;SDS011;41667;51.922;8.850;2024-01-16T09:59:36;11.13;;;6.53;;
53391;SDS011;41667;51.922;8.850;2024-01-16T10:02:04;12.80;;;5.57;;
53391;SDS011;41667;51.922;8.850;2024-01-16T10:04:31;9.77;;;5.88;;
53391;SDS011;41667;51.922;8.850;2024-01-16T10:06:58;9.13;;;6.32;;
53391;SDS011;41667;51.922;8.850;2024-01-16T10:09:23;11.75;;;6.93;;
53391;SDS011;41667;51.922;8.850;2024-01-16T10:11:48;10.85;;;7.18;;
53391;SDS011;41667;51.922;8.850;2024-01-16T10:14:15;11.88;;;6.70;;
53391;SDS011;41667;51.922;8.850;2024-01-16T10:17:01;15.30;;;7.78;;
53391;SDS011;41667;51.922;8.850;2024-01-16T10:19:30;15.30;;;9.00;;
53391;SDS011;41667;51.922;8.850;2024-01-16T10:22:03;13.35;;;8.35;;
53391;SDS011;41667;51.922;8.850;2024-01-16T10:24:29;13.35;;;7.85;;
53391;SDS011;41667;51.922;8.850;2024-01-16T10:26:58;13.90;;;7.57;;
53391;SDS011;41667;51.922;8.850;2024-01-16T10:29:28;13.95;;;9.35;;
53391;SDS011;41667;51.922;8.850;2024-01-16T10:31:53;22.75;;;10.35;;
53391;SDS011;41667;51.922;8.850;2024-01-16T10:34:19;15.70;;;7.90;;
53391;SDS011;41667;51.922;8.850;2024-01-16T10:36:46;21.25;;;11.27;;
53391;SDS011;41667;51.922;8.850;2024-01-16T10:39:11;23.00;;;11.40;;
53391;SDS011;41667;51.922;8.850;2024-01-16T10:41:36;23.33;;;10.65;;
53391;SDS011;41667;51.922;8.850;2024-01-16T10:44:05;13.82;;;7.60;;
53391;SDS011;41667;51.922;8.850;2024-01-16T10:46:34;21.65;;;11.38;;
53391;SDS011;41667;51.922;8.850;2024-01-16T10:49:03;17.40;;;10.75;;
53391;SDS011;41667;51.922;8.850;2024-01-16T10:51:29;9.75;;;6.90;;
53391;SDS011;41667;51.922;8.850;2024-01-16T10:53:59;20.80;;;10.90;;
53391;SDS011;41667;51.922;8.850;2024-01-16T10:56:31;29.52;;;11.15;;
53391;SDS011;41667;51.922;8.850;2024-01-16T10:59:06;31.67;;;15.10;;
53391;SDS011;41667;51.922;8.850;2024-01-16T11:01:37;27.05;;;12.40;;
53391;SDS011;41667;51.922;8.850;2024-01-16T11:04:03;21.05;;;12.55;;
53391;SDS011;41667;51.922;8.850;2024-01-16T11:06:28;17.08;;;10.55;;
53391;SDS011;41667;51.922;8.850;2024-01-16T11:08:54;21.05;;;11.43;;
53391;SDS011;41667;51.922;8.850;2024-01-16T11:11:21;16.45;;;10.15;;
53391;SDS011;41667;51.922;8.850;2024-01-16T11:13:47;18.08;;;11.43;;
53391;SDS011;41667;51.922;8.850;2024-01-16T11:16:13;22.52;;;10.93;;
53391;SDS011;41667;51.922;8.850;2024-01-16T11:18:39;23.38;;;10.73;;
53391;SDS011;41667;51.922;8.850;2024-01-16T11:21:08;15.93;;;10.55;;
53391;SDS011;41667;51.922;8.850;2024-01-16T11:23:35;18.63;;;9.25;;
53391;SDS011;41667;51.922;8.850;2024-01-16T11:28:57;12.15;;;7.65;;
53391;SDS011;41667;51.922;8.850;2024-01-16T11:31:27;20.27;;;9.40;;
53391;SDS011;41667;51.922;8.850;2024-01-16T11:33:53;13.05;;;8.20;;
53391;SDS011;41667;51.922;8.850;2024-01-16T11:39:18;11.50;;;7.45;;
53391;SDS011;41667;51.922;8.850;2024-01-16T11:41:48;18.88;;;9.68;;
53391;SDS011;41667;51.922;8.850;2024-01-16T11:44:35;16.38;;;8.65;;
53391;SDS011;41667;51.922;8.850;2024-01-16T11:47:02;8.40;;;4.53;;
53391;SDS011;41667;51.922;8.850;2024-01-16T11:49:28;10.20;;;6.82;;
53391;SDS011;41667;51.922;8.850;2024-01-16T11:51:55;9.10;;;6.82;;
53391;SDS011;41667;51.922;8.850;2024-01-16T11:54:20;17.45;;;7.28;;
53391;SDS011;41667;51.922;8.850;2024-01-16T11:56:56;7.70;;;5.03;;
53391;SDS011;41667;51.922;8.850;2024-01-16T12:02:23;10.02;;;5.38;;
53391;SDS011;41667;51.922;8.850;2024-01-16T12:04:54;9.77;;;5.05;;
53391;SDS011;41667;51.922;8.850;2024-01-16T12:07:21;7.45;;;4.93;;
53391;SDS011;41667;51.922;8.850;2024-01-16T12:09:46;6.80;;;5.20;;
53391;SDS011;41667;51.922;8.850;2024-01-16T12:12:14;10.10;;;4.22;;
53391;SDS011;41667;51.922;8.850;2024-01-16T12:14:40;7.80;;;4.10;;
53391;SDS011;41667;51.922;8.850;2024-01-16T12:17:11;7.43;;;4.22;;
53391;SDS011;41667;51.922;8.850;2024-01-16T12:19:37;6.07;;;3.42;;
53391;SDS011;41667;51.922;8.850;2024-01-16T12:22:05;7.15;;;4.45;;
53391;SDS011;41667;51.922;8.850;2024-01-16T12:24:33;8.07;;;4.03;;
53391;SDS011;41667;51.922;8.850;2024-01-16T12:26:58;4.95;;;3.38;;
53391;SDS011;41667;51.922;8.850;2024-01-16T12:29:24;4.45;;;3.28;;
53391;SDS011;41667;51.922;8.850;2024-01-16T12:31:49;14.93;;;4.43;;
53391;SDS011;41667;51.922;8.850;2024-01-16T12:34:14;8.50;;;3.65;;
53391;SDS011;41667;51.922;8.850;2024-01-16T12:36:40;5.45;;;3.22;;
53391;SDS011;41667;51.922;8.850;2024-01-16T12:39:05;8.25;;;4.47;;
53391;SDS011;41667;51.922;8.850;2024-01-16T12:41:32;10.38;;;4.07;;
53391;SDS011;41667;51.922;8.850;2024-01-16T12:44:01;7.55;;;3.97;;
53391;SDS011;41667;51.922;8.850;2024-01-16T12:46:27;6.28;;;3.60;;
53391;SDS011;41667;51.922;8.850;2024-01-16T12:48:52;1.67;;;1.52;;
53391;SDS011;41667;51.922;8.850;2024-01-16T12:51:20;4.10;;;3.15;;
53391;SDS011;41667;51.922;8.850;2024-01-16T12:53:47;6.03;;;3.67;;
53391;SDS011;41667;51.922;8.850;2024-01-16T12:56:12;4.53;;;2.75;;
53391;SDS011;41667;51.922;8.850;2024-01-16T12:58:38;2.58;;;2.38;;
53391;SDS011;41667;51.922;8.850;2024-01-16T13:03:54;3.05;;;2.80;;
53391;SDS011;41667;51.922;8.850;2024-01-16T13:06:22;9.32;;;3.30;;
53391;SDS011;41667;51.922;8.850;2024-01-16T13:08:48;7.32;;;2.83;;
53391;SDS011;41667;51.922;8.850;2024-01-16T13:11:13;3.92;;;2.97;;
53391;SDS011;41667;51.922;8.850;2024-01-16T13:13:45;3.35;;;2.67;;
53391;SDS011;41667;51.922;8.850;2024-01-16T13:16:12;4.22;;;2.90;;
53391;SDS011;41667;51.922;8.850;2024-01-16T13:18:37;6.32;;;2.38;;
53391;SDS011;41667;51.922;8.850;2024-01-16T13:21:02;7.63;;;2.60;;
53391;SDS011;41667;51.922;8.850;2024-01-16T13:23:29;5.18;;;2.58;;
53391;SDS011;41667;51.922;8.850;2024-01-16T13:25:55;6.88;;;2.55;;
53391;SDS011;41667;51.922;8.850;2024-01-16T13:28:21;9.48;;;2.85;;
53391;SDS011;41667;51.922;8.850;2024-01-16T13:30:47;2.17;;;1.98;;
53391;SDS011;41667;51.922;8.850;2024-01-16T13:33:12;7.00;;;2.72;;
53391;SDS011;41667;51.922;8.850;2024-01-16T13:35:42;8.13;;;3.20;;
53391;SDS011;41667;51.922;8.850;2024-01-16T13:38:09;4.00;;;2.92;;
53391;SDS011;41667;51.922;8.850;2024-01-16T13:40:35;3.63;;;2.38;;
53391;SDS011;41667;51.922;8.850;2024-01-16T13:43:01;3.13;;;2.03;;
53391;SDS011;41667;51.922;8.850;2024-01-16T13:45:26;7.72;;;3.15;;
53391;SDS011;41667;51.922;8.850;2024-01-16T13:47:53;3.40;;;2.83;;
53391;SDS011;41667;51.922;8.850;2024-01-16T13:50:18;3.00;;;2.72;;
53391;SDS011;41667;51.922;8.850;2024-01-16T13:52:44;2.13;;;1.98;;
53391;SDS011;41667;51.922;8.850;2024-01-16T13:55:09;6.22;;;2.05;;
53391;SDS011;41667;51.922;8.850;2024-01-16T13:57:34;6.25;;;2.65;;
53391;SDS011;41667;51.922;8.850;2024-01-16T14:00:05;5.65;;;3.35;;
53391;SDS011;41667;51.922;8.850;2024-01-16T14:02:31;14.95;;;3.60;;
53391;SDS011;41667;51.922;8.850;2024-01-16T14:04:57;8.45;;;3.83;;
53391;SDS011;41667;51.922;8.850;2024-01-16T14:07:22;4.85;;;2.38;;
53391;SDS011;41667;51.922;8.850;2024-01-16T14:09:47;3.35;;;2.25;;
53391;SDS011;41667;51.922;8.850;2024-01-16T14:12:13;7.22;;;2.38;;
53391;SDS011;41667;51.922;8.850;2024-01-16T14:14:39;6.32;;;2.80;;
53391;SDS011;41667;51.922;8.850;2024-01-16T14:17:06;9.45;;;2.90;;
53391;SDS011;41667;51.922;8.850;2024-01-16T14:19:31;4.25;;;3.05;;
53391;SDS011;41667;51.922;8.850;2024-01-16T14:21:59;4.20;;;2.63;;
53391;SDS011;41667;51.922;8.850;2024-01-16T14:24:24;2.70;;;1.92;;
53391;SDS011;41667;51.922;8.850;2024-01-16T14:26:49;9.20;;;2.70;;
53391;SDS011;41667;51.922;8.850;2024-01-16T14:29:15;5.22;;;2.38;;
53391;SDS011;41667;51.922;8.850;2024-01-16T14:31:40;3.08;;;2.40;;
53391;SDS011;41667;51.922;8.850;2024-01-16T14:34:09;5.53;;;2.25;;
53391;SDS011;41667;51.922;8.850;2024-01-16T14:36:35;4.97;;;2.95;;
53391;SDS011;41667;51.922;8.850;2024-01-16T14:39:01;7.10;;;2.50;;
53391;SDS011;41667;51.922;8.850;2024-01-16T14:41:26;2.95;;;2.30;;
53391;SDS011;41667;51.922;8.850;2024-01-16T14:43:51;6.93;;;2.63;;
53391;SDS011;41667;51.922;8.850;2024-01-16T14:46:17;12.55;;;4.53;;
53391;SDS011;41667;51.922;8.850;2024-01-16T14:48:44;7.95;;;2.72;;